sensor_id;sensor_type;location;lat;lon;timestamp;P1;durP1;ratioP1;P2;durP2;ratioP2
75781;SDS011;64400;44.762;37.698;2023-09-08T00:02:07;9.07;;;3.30;;
75781;SDS011;64400;44.762;37.698;2023-09-08T00:04:38;9.35;;;3.28;;
75781;SDS011;64400;44.762;37.698;2023-09-08T00:07:08;8.13;;;3.15;;
75781;SDS011;64400;44.762;37.698;2023-09-08T00:09:37;5.53;;;3.20;;
75781;SDS011;64400;44.762;37.698;2023-09-08T00:12:06;6.40;;;3.22;;
75781;SDS011;64400;44.762;37.698;2023-09-08T00:14:36;7.05;;;3.20;;
75781;SDS011;64400;44.762;37.698;2023-09-08T00:17:05;6.07;;;3.00;;
75781;SDS011;64400;44.762;37.698;2023-09-08T00:19:34;6.07;;;2.92;;
75781;SDS011;64400;44.762;37.698;2023-09-08T00:22:04;5.60;;;2.97;;
75781;SDS011;64400;44.762;37.698;2023-09-08T00:24:36;7.15;;;2.92;;
75781;SDS011;64400;44.762;37.698;2023-09-08T00:27:05;6.72;;;2.80;;
75781;SDS011;64400;44.762;37.698;2023-09-08T00:29:34;5.93;;;2.70;;
75781;SDS011;64400;44.762;37.698;2023-09-08T00:32:04;5.85;;;2.53;;
75781;SDS011;64400;44.762;37.698;2023-09-08T00:34:33;6.25;;;2.80;;
75781;SDS011;64400;44.762;37.698;2023-09-08T00:37:02;6.07;;;2.58;;
75781;SDS011;64400;44.762;37.698;2023-09-08T00:39:36;6.50;;;2.80;;
75781;SDS011;64400;44.762;37.698;2023-09-08T00:42:06;6.47;;;2.60;;
75781;SDS011;64400;44.762;37.698;2023-09-08T00:44:39;7.18;;;2.70;;
75781;SDS011;64400;44.762;37.698;2023-09-08T00:47:09;5.15;;;2.58;;
75781;SDS011;64400;44.762;37.698;2023-09-08T00:49:40;6.63;;;2.90;;
75781;SDS011;64400;44.762;37.698;2023-09-08T00:52:11;5.75;;;2.88;;
75781;SDS011;64400;44.762;37.698;2023-09-08T00:54:41;4.82;;;2.50;;
75781;SDS011;64400;44.762;37.698;2023-09-08T00:57:11;5.35;;;2.53;;
75781;SDS011;64400;44.762;37.698;2023-09-08T00:59:42;4.82;;;2.45;;
75781;SDS011;64400;44.762;37.698;2023-09-08T01:02:13;4.63;;;2.45;;
75781;SDS011;64400;44.762;37.698;2023-09-08T01:04:43;4.80;;;2.28;;
75781;SDS011;64400;44.762;37.698;2023-09-08T01:07:14;5.32;;;2.53;;
75781;SDS011;64400;44.762;37.698;2023-09-08T01:09:46;3.92;;;2.00;;
75781;SDS011;64400;44.762;37.698;2023-09-08T01:12:17;5.95;;;2.40;;
75781;SDS011;64400;44.762;37.698;2023-09-08T01:14:48;5.30;;;2.35;;
75781;SDS011;64400;44.762;37.698;2023-09-08T01:17:18;4.28;;;2.30;;
75781;SDS011;64400;44.762;37.698;2023-09-08T01:19:47;5.10;;;2.25;;
75781;SDS011;64400;44.762;37.698;2023-09-08T01:27:54;5.15;;;2.30;;
75781;SDS011;64400;44.762;37.698;2023-09-08T01:30:26;4.45;;;2.10;;
75781;SDS011;64400;44.762;37.698;2023-09-08T01:32:58;4.65;;;2.00;;
75781;SDS011;64400;44.762;37.698;2023-09-08T01:35:27;5.50;;;2.17;;
75781;SDS011;64400;44.762;37.698;2023-09-08T01:37:59;4.75;;;1.90;;
75781;SDS011;64400;44.762;37.698;2023-09-08T01:40:31;3.50;;;2.00;;
75781;SDS011;64400;44.762;37.698;2023-09-08T01:43:00;3.45;;;1.92;;
75781;SDS011;64400;44.762;37.698;2023-09-08T01:45:31;4.32;;;1.70;;
75781;SDS011;64400;44.762;37.698;2023-09-08T01:48:00;3.22;;;1.90;;
75781;SDS011;64400;44.762;37.698;2023-09-08T01:50:29;3.85;;;2.00;;
75781;SDS011;64400;44.762;37.698;2023-09-08T01:52:59;5.07;;;2.15;;
75781;SDS011;64400;44.762;37.698;2023-09-08T01:55:29;4.55;;;2.00;;
75781;SDS011;64400;44.762;37.698;2023-09-08T01:57:58;5.85;;;2.28;;
75781;SDS011;64400;44.762;37.698;2023-09-08T02:00:28;3.03;;;1.70;;
75781;SDS011;64400;44.762;37.698;2023-09-08T02:02:57;3.78;;;1.83;;
75781;SDS011;64400;44.762;37.698;2023-09-08T02:05:27;4.72;;;1.77;;
75781;SDS011;64400;44.762;37.698;2023-09-08T02:07:57;4.63;;;1.85;;
75781;SDS011;64400;44.762;37.698;2023-09-08T02:10:26;5.78;;;1.83;;
75781;SDS011;64400;44.762;37.698;2023-09-08T02:12:55;4.40;;;1.88;;
75781;SDS011;64400;44.762;37.698;2023-09-08T02:15:24;3.15;;;1.55;;
75781;SDS011;64400;44.762;37.698;2023-09-08T02:17:54;4.00;;;1.60;;
75781;SDS011;64400;44.762;37.698;2023-09-08T02:20:46;3.83;;;1.75;;
75781;SDS011;64400;44.762;37.698;2023-09-08T02:23:16;4.40;;;1.63;;
75781;SDS011;64400;44.762;37.698;2023-09-08T02:25:45;5.07;;;1.50;;
75781;SDS011;64400;44.762;37.698;2023-09-08T02:28:15;5.38;;;1.70;;
75781;SDS011;64400;44.762;37.698;2023-09-08T02:30:44;6.85;;;1.55;;
75781;SDS011;64400;44.762;37.698;2023-09-08T02:33:13;3.53;;;1.50;;
75781;SDS011;64400;44.762;37.698;2023-09-08T02:35:43;4.22;;;1.67;;
75781;SDS011;64400;44.762;37.698;2023-09-08T02:38:13;3.17;;;1.48;;
75781;SDS011;64400;44.762;37.698;2023-09-08T02:40:43;3.28;;;1.40;;
75781;SDS011;64400;44.762;37.698;2023-09-08T02:43:13;3.38;;;1.85;;
75781;SDS011;64400;44.762;37.698;2023-09-08T02:45:42;2.92;;;1.45;;
75781;SDS011;64400;44.762;37.698;2023-09-08T02:48:11;3.10;;;1.60;;
75781;SDS011;64400;44.762;37.698;2023-09-08T02:50:40;3.33;;;1.48;;
75781;SDS011;64400;44.762;37.698;2023-09-08T02:53:09;3.30;;;1.70;;
75781;SDS011;64400;44.762;37.698;2023-09-08T02:55:39;4.00;;;1.40;;
75781;SDS011;64400;44.762;37.698;2023-09-08T02:58:08;3.10;;;1.50;;
75781;SDS011;64400;44.762;37.698;2023-09-08T03:00:37;3.60;;;1.42;;
75781;SDS011;64400;44.762;37.698;2023-09-08T03:03:06;4.07;;;1.60;;
75781;SDS011;64400;44.762;37.698;2023-09-08T03:05:36;4.97;;;1.40;;
75781;SDS011;64400;44.762;37.698;2023-09-08T03:08:06;5.88;;;1.73;;
75781;SDS011;64400;44.762;37.698;2023-09-08T03:10:35;9.63;;;1.65;;
75781;SDS011;64400;44.762;37.698;2023-09-08T03:13:04;3.95;;;1.60;;
75781;SDS011;64400;44.762;37.698;2023-09-08T03:15:34;3.60;;;1.40;;
75781;SDS011;64400;44.762;37.698;2023-09-08T03:18:03;4.30;;;1.42;;
75781;SDS011;64400;44.762;37.698;2023-09-08T03:20:34;3.70;;;1.23;;
75781;SDS011;64400;44.762;37.698;2023-09-08T03:23:03;6.05;;;1.65;;
75781;SDS011;64400;44.762;37.698;2023-09-08T03:25:33;4.75;;;1.38;;
75781;SDS011;64400;44.762;37.698;2023-09-08T03:28:02;3.35;;;1.52;;
75781;SDS011;64400;44.762;37.698;2023-09-08T03:30:33;3.58;;;1.98;;
75781;SDS011;64400;44.762;37.698;2023-09-08T03:33:02;3.10;;;1.27;;
75781;SDS011;64400;44.762;37.698;2023-09-08T03:35:32;6.05;;;1.60;;
75781;SDS011;64400;44.762;37.698;2023-09-08T03:38:02;2.92;;;1.45;;
75781;SDS011;64400;44.762;37.698;2023-09-08T03:40:33;4.18;;;1.50;;
75781;SDS011;64400;44.762;37.698;2023-09-08T03:43:02;2.92;;;1.30;;
75781;SDS011;64400;44.762;37.698;2023-09-08T03:45:32;4.78;;;1.40;;
75781;SDS011;64400;44.762;37.698;2023-09-08T03:48:02;3.67;;;1.60;;
75781;SDS011;64400;44.762;37.698;2023-09-08T03:50:32;3.20;;;1.50;;
75781;SDS011;64400;44.762;37.698;2023-09-08T03:53:02;4.40;;;1.60;;
75781;SDS011;64400;44.762;37.698;2023-09-08T03:55:33;2.60;;;1.30;;
75781;SDS011;64400;44.762;37.698;2023-09-08T03:58:02;5.70;;;1.48;;
75781;SDS011;64400;44.762;37.698;2023-09-08T04:00:31;5.32;;;1.40;;
75781;SDS011;64400;44.762;37.698;2023-09-08T04:03:01;3.83;;;1.40;;
75781;SDS011;64400;44.762;37.698;2023-09-08T04:05:32;3.38;;;1.50;;
75781;SDS011;64400;44.762;37.698;2023-09-08T04:08:02;3.83;;;1.60;;
75781;SDS011;64400;44.762;37.698;2023-09-08T04:10:33;3.50;;;1.33;;
75781;SDS011;64400;44.762;37.698;2023-09-08T04:13:03;3.20;;;1.40;;
75781;SDS011;64400;44.762;37.698;2023-09-08T04:15:34;4.07;;;1.40;;
75781;SDS011;64400;44.762;37.698;2023-09-08T04:18:03;23.75;;;2.70;;
75781;SDS011;64400;44.762;37.698;2023-09-08T04:20:34;15.50;;;2.55;;
75781;SDS011;64400;44.762;37.698;2023-09-08T04:23:03;4.85;;;1.60;;
75781;SDS011;64400;44.762;37.698;2023-09-08T06:32:34;4.65;;;1.58;;
